createdAt,value
2022-11-17T00:01:07.819Z,86.36
2022-11-17T00:03:57.182Z,86.17
2022-11-17T00:06:46.817Z,86.09
2022-11-17T00:09:37.712Z,86.20
2022-11-17T00:12:44.799Z,86.47
2022-11-17T00:15:35.175Z,85.99
2022-11-17T00:18:42.575Z,86.09
2022-11-17T00:21:32.620Z,86.10
2022-11-17T00:24:23.871Z,86.09
2022-11-17T00:27:14.844Z,85.99
2022-11-17T00:30:04.327Z,85.91
2022-11-17T00:33:11.249Z,85.81
2022-11-17T00:36:01.512Z,85.89
2022-11-17T00:38:51.247Z,86.06
2022-11-17T00:41:41.092Z,85.74
2022-11-17T00:44:32.609Z,85.83
2022-11-17T00:47:22.078Z,86.19
2022-11-17T00:50:12.088Z,86.24
2022-11-17T00:53:01.824Z,86.06
2022-11-17T00:55:51.613Z,86.12
2022-11-17T00:58:41.208Z,86.04
2022-11-17T01:01:33.187Z,85.74
2022-11-17T01:04:22.993Z,85.98
2022-11-17T01:07:12.479Z,85.93
2022-11-17T01:10:01.944Z,85.88
2022-11-17T01:12:51.702Z,85.54
2022-11-17T01:15:41.142Z,85.66
2022-11-17T01:18:32.526Z,85.89
2022-11-17T01:21:24.836Z,85.60
2022-11-17T01:24:16.249Z,85.85
2022-11-17T01:27:06.155Z,85.82
2022-11-17T01:29:56.282Z,85.96
2022-11-17T01:32:46.013Z,85.85
2022-11-17T01:35:37.507Z,85.57
2022-11-17T01:38:26.984Z,85.75
2022-11-17T01:41:20.618Z,85.89
2022-11-17T01:44:57.979Z,85.77
2022-11-17T01:47:50.688Z,85.80
2022-11-17T01:50:49.447Z,85.59
2022-11-17T01:53:39.761Z,86.15
2022-11-17T01:56:39.070Z,86.12
2022-11-17T01:59:36.112Z,85.65
2022-11-17T02:02:25.972Z,85.38
2022-11-17T02:05:36.576Z,85.66
2022-11-17T02:08:32.165Z,85.49
2022-11-17T02:11:23.049Z,86.13
2022-11-17T02:14:12.802Z,85.74
2022-11-17T02:17:11.507Z,86.43
2022-11-17T02:20:10.072Z,86.36
2022-11-17T02:23:31.193Z,86.43
2022-11-17T02:26:56.056Z,86.53
2022-11-17T02:29:54.547Z,86.48
2022-11-17T02:33:00.220Z,86.89
2022-11-17T02:35:58.555Z,86.93
2022-11-17T02:38:56.252Z,86.94
2022-11-17T02:41:53.900Z,87.28
2022-11-17T02:44:52.487Z,86.87
2022-11-17T02:47:45.717Z,86.80
2022-11-17T02:50:37.861Z,86.89
2022-11-17T02:53:29.981Z,86.72
2022-11-17T02:56:19.337Z,86.73
2022-11-17T02:59:08.807Z,86.45
2022-11-17T03:02:39.870Z,87.29
2022-11-17T03:05:39.240Z,86.53
2022-11-17T03:08:42.089Z,87.17
2022-11-17T03:11:41.008Z,86.50
2022-11-17T03:14:41.776Z,86.26
2022-11-17T03:17:41.612Z,86.14
2022-11-17T03:20:40.949Z,86.10
2022-11-17T03:23:39.563Z,85.65
2022-11-17T03:26:33.899Z,85.33
2022-11-17T03:29:28.277Z,85.78
2022-11-17T03:32:19.319Z,85.52
2022-11-17T03:35:14.151Z,86.40
2022-11-17T03:38:11.076Z,86.33
2022-11-17T03:41:04.262Z,86.00
2022-11-17T03:43:55.822Z,86.23
2022-11-17T03:46:48.809Z,86.78
2022-11-17T03:49:44.789Z,86.99
2022-11-17T03:52:38.049Z,86.49
2022-11-17T03:55:36.071Z,87.14
2022-11-17T03:58:31.184Z,87.13
2022-11-17T04:01:22.654Z,87.23
2022-11-17T04:04:17.369Z,87.13
2022-11-17T04:07:06.663Z,87.55
2022-11-17T04:09:57.475Z,88.07
2022-11-17T04:13:04.460Z,87.86
2022-11-17T04:15:59.583Z,87.65
2022-11-17T04:18:49.085Z,88.76
2022-11-17T04:21:38.421Z,88.54
2022-11-17T04:24:27.762Z,89.15
2022-11-17T04:27:35.915Z,89.17
2022-11-17T04:30:25.238Z,88.97
2022-11-17T04:33:14.730Z,88.91
2022-11-17T04:36:06.885Z,88.52
2022-11-17T04:38:58.851Z,88.93
2022-11-17T04:42:02.091Z,89.27
2022-11-17T04:44:52.971Z,89.32
2022-11-17T04:47:42.280Z,89.82
2022-11-17T04:50:31.569Z,89.31
2022-11-17T04:53:21.140Z,89.35
2022-11-17T04:56:11.101Z,89.91
2022-11-17T04:59:00.562Z,89.71
2022-11-17T05:01:51.478Z,89.76
2022-11-17T05:04:59.072Z,90.02
2022-11-17T05:07:48.326Z,89.78
2022-11-17T05:10:55.354Z,90.07
2022-11-17T05:13:44.695Z,90.29
2022-11-17T05:16:51.673Z,90.59
2022-11-17T05:19:45.643Z,90.31
2022-11-17T05:22:52.519Z,90.16
2022-11-17T05:25:41.857Z,89.97
2022-11-17T05:28:33.167Z,90.78
2022-11-17T05:31:22.608Z,90.43
2022-11-17T05:34:14.807Z,90.66
2022-11-17T05:37:05.494Z,90.82
2022-11-17T05:39:54.834Z,90.78
2022-11-17T05:42:44.303Z,90.82
2022-11-17T05:45:33.555Z,90.96
2022-11-17T05:48:23.002Z,90.76
2022-11-17T05:51:13.224Z,91.07
2022-11-17T05:54:04.156Z,91.05
2022-11-17T05:56:58.201Z,91.08
2022-11-17T05:59:51.975Z,91.08
2022-11-17T06:02:47.186Z,91.94
2022-11-17T06:05:36.928Z,91.97
2022-11-17T06:08:26.876Z,92.00
2022-11-17T06:11:19.088Z,92.16
2022-11-17T06:14:08.642Z,92.22
2022-11-17T06:17:05.440Z,91.76
2022-11-17T06:20:01.545Z,92.16
2022-11-17T06:22:52.304Z,92.42
2022-11-17T06:25:42.030Z,92.05
2022-11-17T06:28:33.950Z,92.28
2022-11-17T06:31:23.374Z,92.03
2022-11-17T06:34:13.945Z,92.23
2022-11-17T06:37:03.290Z,92.70
2022-11-17T06:39:52.567Z,92.64
2022-11-17T06:42:59.590Z,92.21
2022-11-17T06:45:50.645Z,92.60
2022-11-17T06:48:40.287Z,92.58
2022-11-17T06:51:29.814Z,92.76
2022-11-17T06:54:19.082Z,92.70
2022-11-17T06:57:08.511Z,92.65
2022-11-17T06:59:58.296Z,92.76
2022-11-17T07:02:49.081Z,92.46
2022-11-17T07:05:40.480Z,92.30
2022-11-17T07:08:30.367Z,92.03
2022-11-17T07:11:20.688Z,92.36
2022-11-17T07:14:10.227Z,92.37
2022-11-17T07:16:59.560Z,92.51
2022-11-17T07:19:50.361Z,92.17
2022-11-17T07:22:39.842Z,92.12
2022-11-17T07:25:29.159Z,92.64
2022-11-17T07:28:18.977Z,92.24
2022-11-17T07:31:10.315Z,92.13
2022-11-17T07:33:59.846Z,91.97
2022-11-17T07:36:50.695Z,92.22
2022-11-17T07:39:40.108Z,92.10
2022-11-17T07:42:29.428Z,91.75
2022-11-17T07:45:21.305Z,91.74
2022-11-17T07:48:10.581Z,92.01
2022-11-17T07:51:00.411Z,92.09
2022-11-17T07:53:51.149Z,92.23
2022-11-17T07:56:40.637Z,92.14
2022-11-17T07:59:29.958Z,91.86
2022-11-17T08:02:19.310Z,93.00
2022-11-17T08:05:09.839Z,92.47
2022-11-17T08:08:00.600Z,92.20
2022-11-17T08:10:51.289Z,92.28
2022-11-17T08:13:42.126Z,92.30
2022-11-17T08:16:32.270Z,91.78
2022-11-17T08:19:21.862Z,91.94
2022-11-17T08:22:11.107Z,91.40
2022-11-17T08:25:00.427Z,91.03
2022-11-17T08:27:52.272Z,90.95
2022-11-17T08:30:41.931Z,91.13
2022-11-17T08:33:31.273Z,91.01
2022-11-17T08:36:20.583Z,90.96
2022-11-17T08:39:10.081Z,91.37
2022-11-17T08:41:59.693Z,91.05
2022-11-17T08:44:50.665Z,91.09
2022-11-17T08:47:40.873Z,91.11
2022-11-17T08:50:30.197Z,90.41
2022-11-17T08:53:23.175Z,91.16
2022-11-17T08:56:14.291Z,90.89
2022-11-17T08:59:04.849Z,90.94
2022-11-17T09:01:55.699Z,90.61
2022-11-17T09:04:46.225Z,90.96
2022-11-17T09:07:36.197Z,91.42
2022-11-17T09:10:25.522Z,90.94
2022-11-17T09:13:25.138Z,91.21
2022-11-17T09:16:14.996Z,91.02
2022-11-17T09:19:05.724Z,90.56
2022-11-17T09:21:55.395Z,90.14
2022-11-17T09:24:44.701Z,90.55
2022-11-17T09:27:34.018Z,89.96
2022-11-17T09:30:23.948Z,90.33
2022-11-17T09:33:13.188Z,90.12
2022-11-17T09:36:04.805Z,89.93
2022-11-17T09:38:54.293Z,90.24
2022-11-17T09:41:47.410Z,89.12
2022-11-17T09:44:42.175Z,88.68
2022-11-17T09:47:42.489Z,88.67
2022-11-17T09:50:37.863Z,88.16
2022-11-17T09:53:39.053Z,88.45
2022-11-17T09:56:28.995Z,88.00
2022-11-17T09:59:22.721Z,88.25
2022-11-17T10:02:12.624Z,87.72
2022-11-17T10:05:02.265Z,87.93
2022-11-17T10:07:55.269Z,87.18
2022-11-17T10:10:48.566Z,86.65
2022-11-17T10:13:39.024Z,86.42
2022-11-17T10:16:28.322Z,86.88
2022-11-17T10:19:20.635Z,85.28
2022-11-17T10:22:30.658Z,85.41
2022-11-17T10:25:37.514Z,84.29
2022-11-17T10:28:31.522Z,86.00
2022-11-17T10:31:21.400Z,83.90
2022-11-17T10:34:12.989Z,84.52
2022-11-17T10:37:22.880Z,84.92
2022-11-17T10:40:25.050Z,84.16
2022-11-17T10:43:26.968Z,84.71
2022-11-17T10:46:18.632Z,83.38
2022-11-17T10:49:26.876Z,82.47
2022-11-17T10:52:19.893Z,82.50
2022-11-17T10:55:26.827Z,82.19
2022-11-17T10:58:26.454Z,82.07
2022-11-17T11:01:32.239Z,80.95
2022-11-17T11:04:33.402Z,79.89
2022-11-17T11:07:25.145Z,80.64
2022-11-17T11:10:20.221Z,80.77
2022-11-17T11:13:20.594Z,80.68
2022-11-17T11:16:12.932Z,80.18
2022-11-17T11:19:04.058Z,79.52
2022-11-17T11:22:35.806Z,77.74
2022-11-17T11:25:37.562Z,77.75
2022-11-17T11:28:45.750Z,77.62
2022-11-17T11:31:53.669Z,73.55
2022-11-17T11:35:18.200Z,74.37
2022-11-17T11:38:26.892Z,69.29
2022-11-17T11:41:40.649Z,68.37
2022-11-17T11:44:53.285Z,69.48
2022-11-17T11:48:03.746Z,69.09
2022-11-17T11:51:00.284Z,67.15
2022-11-17T11:53:56.020Z,66.28
2022-11-17T11:56:49.311Z,67.02
2022-11-17T11:59:48.319Z,67.64
2022-11-17T12:02:47.983Z,65.69
2022-11-17T12:05:50.495Z,65.04
2022-11-17T12:08:50.200Z,66.76
2022-11-17T12:11:59.005Z,67.05
2022-11-17T12:15:37.415Z,68.04
2022-11-17T12:18:34.519Z,69.04
2022-11-17T12:21:26.258Z,70.07
2022-11-17T12:24:20.000Z,70.97
2022-11-17T12:27:45.276Z,71.37
2022-11-17T12:30:57.103Z,71.83
2022-11-17T12:34:23.361Z,72.25
2022-11-17T12:37:30.660Z,72.54
2022-11-17T12:40:46.708Z,72.36
2022-11-17T12:43:36.046Z,72.61
2022-11-17T12:46:28.418Z,72.93
2022-11-17T12:49:29.704Z,73.11
2022-11-17T12:52:33.412Z,73.00
2022-11-17T12:55:38.091Z,73.16
2022-11-17T12:58:41.100Z,73.57
2022-11-17T13:01:43.570Z,73.62
2022-11-17T13:04:45.063Z,74.05
2022-11-17T13:07:38.762Z,74.29
2022-11-17T13:10:30.990Z,73.98
2022-11-17T13:13:23.662Z,74.49
2022-11-17T13:16:20.973Z,74.69
2022-11-17T13:19:33.994Z,74.97
2022-11-17T13:22:24.260Z,75.08
2022-11-17T13:25:24.392Z,75.51
2022-11-17T13:28:29.059Z,75.29
2022-11-17T13:31:24.010Z,75.22
2022-11-17T13:34:19.345Z,75.12
2022-11-17T13:37:19.197Z,75.42
2022-11-17T13:40:23.244Z,75.78
2022-11-17T13:43:15.078Z,76.20
2022-11-17T13:46:06.396Z,76.35
2022-11-17T13:48:57.829Z,76.77
2022-11-17T13:51:47.719Z,76.80
2022-11-17T13:54:37.036Z,77.22
2022-11-17T13:57:30.559Z,77.21
2022-11-17T14:00:20.815Z,78.15
2022-11-17T14:03:37.209Z,78.13
2022-11-17T14:06:27.911Z,77.83
2022-11-17T14:09:20.696Z,78.39
2022-11-17T14:12:12.068Z,78.61
2022-11-17T14:15:01.431Z,78.63
2022-11-17T14:17:51.974Z,78.33
2022-11-17T14:20:41.599Z,78.73
2022-11-17T14:23:32.289Z,78.70
2022-11-17T14:26:24.393Z,78.31
2022-11-17T14:29:14.999Z,78.46
2022-11-17T14:32:04.396Z,78.34
2022-11-17T14:34:53.736Z,78.88
2022-11-17T14:37:43.253Z,78.60
2022-11-17T14:40:34.000Z,78.99
2022-11-17T14:43:24.180Z,79.00
2022-11-17T14:46:21.371Z,78.93
2022-11-17T14:49:11.293Z,79.20
2022-11-17T14:52:00.812Z,79.43
2022-11-17T14:54:50.343Z,79.69
2022-11-17T14:57:41.345Z,79.84
2022-11-17T15:00:30.802Z,80.09
2022-11-17T15:03:20.489Z,80.04
2022-11-17T15:06:15.172Z,79.98
2022-11-17T15:09:08.125Z,80.22
2022-11-17T15:11:57.415Z,80.49
2022-11-17T15:14:49.078Z,80.37
2022-11-17T15:17:38.447Z,80.73
2022-11-17T15:20:29.272Z,80.82
2022-11-17T15:23:18.681Z,81.06
2022-11-17T15:26:09.958Z,80.87
2022-11-17T15:28:59.315Z,81.07
2022-11-17T15:31:50.517Z,81.26
2022-11-17T15:34:39.808Z,81.51
2022-11-17T15:37:29.349Z,80.99
2022-11-17T15:40:19.704Z,80.69
2022-11-17T15:43:09.223Z,80.53
2022-11-17T15:46:03.113Z,81.53
2022-11-17T15:48:54.633Z,81.53
2022-11-17T15:51:44.156Z,81.93
2022-11-17T15:54:33.444Z,81.84
2022-11-17T15:57:22.826Z,82.04
2022-11-17T16:00:13.996Z,81.90
2022-11-17T16:03:03.391Z,81.93
2022-11-17T16:05:54.081Z,82.05
2022-11-17T16:08:43.471Z,82.51
2022-11-17T16:11:32.819Z,82.79
2022-11-17T16:14:22.780Z,82.68
2022-11-17T16:17:12.149Z,83.09
2022-11-17T16:20:01.717Z,82.94
2022-11-17T16:22:52.586Z,83.48
2022-11-17T16:25:42.856Z,83.88
2022-11-17T16:28:32.339Z,83.52
2022-11-17T16:31:25.806Z,84.12
2022-11-17T16:34:18.150Z,84.12
2022-11-17T16:37:07.465Z,84.52
2022-11-17T16:39:58.187Z,84.87
2022-11-17T16:42:47.614Z,84.87
2022-11-17T16:45:44.996Z,85.30
2022-11-17T16:48:35.719Z,85.80
2022-11-17T16:51:25.363Z,86.54
2022-11-17T16:54:15.021Z,86.09
2022-11-17T16:57:05.920Z,86.37
2022-11-17T16:59:55.309Z,86.16
2022-11-17T17:02:45.032Z,86.47
2022-11-17T17:05:39.551Z,86.56
2022-11-17T17:08:28.830Z,86.73
2022-11-17T17:11:18.099Z,86.79
2022-11-17T17:14:12.931Z,87.23
2022-11-17T17:17:02.246Z,87.02
2022-11-17T17:19:51.567Z,87.07
2022-11-17T17:22:40.796Z,87.28
2022-11-17T17:25:30.092Z,86.80
2022-11-17T17:28:19.433Z,86.99
2022-11-17T17:31:10.073Z,87.24
2022-11-17T17:34:00.027Z,87.41
2022-11-17T17:36:49.426Z,87.42
2022-11-17T17:39:38.665Z,87.60
2022-11-17T17:42:28.246Z,87.72
2022-11-17T17:45:17.630Z,88.07
2022-11-17T17:48:08.627Z,88.33
2022-11-17T17:51:02.921Z,88.12
2022-11-17T17:53:52.520Z,88.61
2022-11-17T17:56:41.938Z,88.01
2022-11-17T17:59:31.422Z,88.29
2022-11-17T18:02:20.705Z,88.45
2022-11-17T18:05:11.582Z,88.42
2022-11-17T18:08:01.111Z,88.50
2022-11-17T18:10:50.412Z,88.47
2022-11-17T18:13:41.946Z,88.53
2022-11-17T18:16:34.573Z,88.58
2022-11-17T18:19:28.446Z,88.83
2022-11-17T18:22:23.382Z,89.05
2022-11-17T18:25:17.669Z,88.92
2022-11-17T18:28:07.649Z,89.25
2022-11-17T18:30:56.943Z,89.09
2022-11-17T18:33:47.056Z,89.17
2022-11-17T18:36:36.826Z,89.27
2022-11-17T18:39:34.190Z,89.45
2022-11-17T18:42:23.570Z,89.25
2022-11-17T18:45:12.881Z,89.11
2022-11-17T18:48:02.184Z,89.60
2022-11-17T18:51:18.206Z,89.37
2022-11-17T18:54:03.088Z,89.48
2022-11-17T18:56:53.871Z,89.22
2022-11-17T18:59:43.175Z,89.82
2022-11-17T19:02:32.576Z,89.69
2022-11-17T19:05:21.931Z,89.43
2022-11-17T19:08:11.411Z,89.69
2022-11-17T19:11:05.879Z,90.02
2022-11-17T19:13:57.339Z,89.34
2022-11-17T19:16:46.834Z,89.48
2022-11-17T19:19:36.233Z,89.65
2022-11-17T19:22:25.843Z,89.66
2022-11-17T19:25:15.578Z,89.57
2022-11-17T19:28:05.439Z,89.43
2022-11-17T19:31:01.232Z,89.37
2022-11-17T19:33:51.298Z,89.49
2022-11-17T19:36:40.886Z,89.20
2022-11-17T19:39:30.145Z,89.34
2022-11-17T19:42:19.599Z,89.22
2022-11-17T19:45:10.159Z,88.89
2022-11-17T19:48:01.363Z,89.05
2022-11-17T19:50:55.679Z,89.15
2022-11-17T19:53:45.788Z,90.00
2022-11-17T19:56:35.596Z,89.95
2022-11-17T19:59:24.957Z,89.34
2022-11-17T20:02:14.256Z,89.69
2022-11-17T20:05:10.524Z,90.19
2022-11-17T20:08:00.252Z,89.92
2022-11-17T20:10:49.558Z,90.19
2022-11-17T20:13:39.462Z,90.13
2022-11-17T20:16:30.435Z,90.39
2022-11-17T20:19:19.939Z,90.47
2022-11-17T20:22:10.949Z,90.29
2022-11-17T20:25:03.462Z,90.50
2022-11-17T20:27:53.067Z,90.25
2022-11-17T20:30:42.953Z,90.50
2022-11-17T20:33:32.227Z,90.94
2022-11-17T20:36:24.379Z,90.89
2022-11-17T20:39:15.933Z,91.07
2022-11-17T20:42:05.525Z,90.53
2022-11-17T20:44:54.892Z,90.65
2022-11-17T20:47:44.158Z,91.15
2022-11-17T20:50:33.471Z,91.02
2022-11-17T20:53:22.773Z,90.90
2022-11-17T20:56:16.383Z,91.03
2022-11-17T20:59:05.851Z,90.99
2022-11-17T21:01:55.417Z,90.42
2022-11-17T21:04:45.065Z,90.61
2022-11-17T21:07:34.661Z,91.07
2022-11-17T21:10:24.008Z,91.02
2022-11-17T21:13:14.725Z,91.52
2022-11-17T21:16:10.952Z,91.13
2022-11-17T21:19:00.650Z,91.24
2022-11-17T21:21:53.503Z,91.44
2022-11-17T21:24:42.838Z,91.08
2022-11-17T21:27:32.143Z,91.31
2022-11-17T21:30:22.826Z,91.68
2022-11-17T21:33:12.134Z,91.84
2022-11-17T21:36:06.149Z,91.65
2022-11-17T21:38:55.968Z,91.34
2022-11-17T21:41:45.534Z,91.72
2022-11-17T21:44:34.912Z,91.79
2022-11-17T21:47:25.657Z,91.98
2022-11-17T21:50:14.991Z,91.95
2022-11-17T21:53:04.312Z,92.30
2022-11-17T21:55:53.810Z,91.92
2022-11-17T21:58:43.118Z,92.21
2022-11-17T22:01:34.087Z,93.00
2022-11-17T22:04:25.179Z,92.28
2022-11-17T22:07:14.566Z,92.25
2022-11-17T22:10:04.013Z,92.76
2022-11-17T22:12:53.353Z,92.89
2022-11-17T22:15:42.679Z,93.17
2022-11-17T22:18:32.314Z,93.25
2022-11-17T22:21:23.101Z,92.98
2022-11-17T22:24:14.037Z,93.10
2022-11-17T22:27:03.319Z,92.97
2022-11-17T22:29:52.753Z,93.73
2022-11-17T22:32:45.066Z,92.90
2022-11-17T22:35:34.843Z,92.73
2022-11-17T22:38:29.182Z,92.61
2022-11-17T22:41:20.758Z,92.87
2022-11-17T22:44:13.484Z,92.49
2022-11-17T22:47:02.728Z,92.82
2022-11-17T22:49:52.042Z,92.89
2022-11-17T22:52:41.481Z,92.68
2022-11-17T22:55:34.656Z,92.78
2022-11-17T22:58:24.043Z,92.50
2022-11-17T23:01:13.349Z,92.77
2022-11-17T23:04:02.663Z,92.31
2022-11-17T23:06:52.217Z,92.27
2022-11-17T23:09:41.550Z,92.20
2022-11-17T23:12:32.345Z,92.31
2022-11-17T23:15:21.790Z,92.32
2022-11-17T23:18:11.083Z,92.51
2022-11-17T23:21:04.615Z,92.34
2022-11-17T23:23:54.088Z,92.11
2022-11-17T23:26:43.863Z,91.89
2022-11-17T23:29:34.492Z,92.36
2022-11-17T23:32:23.833Z,92.21
2022-11-17T23:35:13.077Z,92.31
2022-11-17T23:38:02.547Z,92.70
2022-11-17T23:40:52.330Z,92.27
2022-11-17T23:43:42.184Z,92.43
2022-11-17T23:46:33.024Z,92.61
2022-11-17T23:49:22.652Z,92.70
2022-11-17T23:52:11.943Z,92.33
2022-11-17T23:55:01.224Z,92.46
2022-11-17T23:57:50.505Z,92.53
